createdAt,value
2022-11-01T00:06:08.303Z,11.95
2022-11-01T00:16:09.454Z,12.00
2022-11-01T00:26:16.388Z,12.00
2022-11-01T00:36:17.987Z,11.89
2022-11-01T00:46:19.047Z,11.82
2022-11-01T00:56:20.196Z,11.68
2022-11-01T01:06:21.432Z,11.53
2022-11-01T01:16:23.038Z,11.62
2022-11-01T01:26:24.301Z,11.74
2022-11-01T01:36:25.386Z,11.84
2022-11-01T01:46:26.448Z,11.72
2022-11-01T01:56:35.021Z,11.70
2022-11-01T02:06:37.187Z,11.75
2022-11-01T02:16:56.479Z,11.74
2022-11-01T02:27:11.388Z,11.63
2022-11-01T02:37:40.325Z,11.63
2022-11-01T02:47:41.467Z,11.65
2022-11-01T02:57:42.684Z,11.76
2022-11-01T03:07:52.250Z,11.78
2022-11-01T03:18:03.985Z,11.64
2022-11-01T03:28:30.204Z,11.60
2022-11-01T03:38:36.018Z,11.69
2022-11-01T03:48:40.661Z,11.74
2022-11-01T03:58:42.102Z,11.66
2022-11-01T04:08:43.402Z,11.58
2022-11-01T04:19:03.236Z,11.54
2022-11-01T04:29:04.495Z,11.61
2022-11-01T04:39:06.523Z,11.63
2022-11-01T04:49:07.737Z,11.46
2022-11-01T04:59:08.915Z,11.41
2022-11-01T05:09:10.011Z,11.43
2022-11-01T05:19:11.127Z,11.44
2022-11-01T05:29:24.539Z,11.20
2022-11-01T05:39:32.459Z,11.15
2022-11-01T05:49:33.576Z,11.25
2022-11-01T05:59:34.759Z,11.33
2022-11-01T06:09:35.846Z,11.26
2022-11-01T06:19:36.943Z,11.31
2022-11-01T06:29:38.177Z,11.41
2022-11-01T06:39:39.320Z,11.42
2022-11-01T06:49:40.700Z,11.55
2022-11-01T06:59:42.429Z,11.62
2022-11-01T07:09:43.771Z,11.70
2022-11-01T07:19:44.978Z,11.89
2022-11-01T07:29:46.231Z,11.73
2022-11-01T07:39:47.426Z,11.75
2022-11-01T07:49:49.661Z,11.99
2022-11-01T07:59:51.389Z,12.17
2022-11-01T08:09:52.544Z,12.35
2022-11-01T08:19:54.164Z,12.44
2022-11-01T08:29:55.862Z,12.57
2022-11-01T08:39:57.586Z,12.51
2022-11-01T08:49:59.107Z,12.48
2022-11-01T09:00:01.475Z,12.69
2022-11-01T09:10:03.764Z,12.88
2022-11-01T09:20:08.885Z,12.96
2022-11-01T09:30:10.423Z,13.23
2022-11-01T09:40:14.071Z,13.65
2022-11-01T09:50:33.835Z,13.82
2022-11-01T10:00:44.067Z,13.28
2022-11-01T10:10:57.942Z,13.10
2022-11-01T10:21:13.966Z,13.25
2022-11-01T10:31:20.447Z,13.38
2022-11-01T10:41:36.434Z,13.78
2022-11-01T10:51:42.332Z,13.85
2022-11-01T11:01:47.453Z,13.53
2022-11-01T11:11:50.398Z,13.75
2022-11-01T11:21:53.502Z,13.69
2022-11-01T11:31:58.499Z,13.57
2022-11-01T11:42:18.559Z,13.64
2022-11-01T11:52:41.361Z,13.29
2022-11-01T12:02:42.667Z,12.94
2022-11-01T12:12:52.127Z,13.06
2022-11-01T12:22:53.386Z,13.10
2022-11-01T12:32:57.618Z,12.95
2022-11-01T12:43:12.626Z,12.93
2022-11-01T12:53:21.633Z,12.74
2022-11-01T13:04:00.395Z,12.49
2022-11-01T13:14:26.857Z,12.43
2022-11-01T13:24:31.045Z,12.35
2022-11-01T13:34:55.110Z,11.92
2022-11-01T13:45:11.323Z,11.82
2022-11-01T13:55:28.776Z,11.89
2022-11-01T14:05:38.916Z,11.94
2022-11-01T14:15:55.230Z,11.82
2022-11-01T14:26:18.337Z,11.89
2022-11-01T14:36:25.498Z,11.99
2022-11-01T14:46:30.758Z,12.05
2022-11-01T14:56:39.974Z,11.97
2022-11-01T15:06:42.867Z,11.80
2022-11-01T15:16:44.260Z,11.78
2022-11-01T15:26:46.013Z,11.83
2022-11-01T15:36:53.616Z,11.85
2022-11-01T15:47:00.951Z,11.74
2022-11-01T15:57:13.943Z,11.59
2022-11-01T16:07:19.301Z,11.64
2022-11-01T16:17:41.734Z,11.71
2022-11-01T16:28:10.557Z,11.75
2022-11-01T16:38:35.958Z,11.67
2022-11-01T16:48:56.163Z,11.53
2022-11-01T16:59:04.303Z,11.55
2022-11-01T17:09:11.887Z,11.60
2022-11-01T17:19:21.240Z,11.52
2022-11-01T17:29:22.654Z,11.38
2022-11-01T17:39:27.803Z,11.38
2022-11-01T17:49:29.250Z,11.44
2022-11-01T17:59:30.459Z,11.55
2022-11-01T18:09:36.210Z,11.48
2022-11-01T18:19:56.614Z,11.35
2022-11-01T18:29:57.942Z,11.37
2022-11-01T18:40:11.046Z,11.44
2022-11-01T18:50:23.005Z,11.50
2022-11-01T19:00:26.719Z,11.43
2022-11-01T19:10:28.043Z,11.28
2022-11-01T19:20:44.558Z,11.31
2022-11-01T19:30:50.856Z,11.39
2022-11-01T19:40:53.555Z,11.49
2022-11-01T19:50:55.256Z,11.43
2022-11-01T20:01:16.679Z,11.30
2022-11-01T20:11:18.179Z,11.36
2022-11-01T20:21:19.507Z,11.48
2022-11-01T20:31:23.383Z,11.44
2022-11-01T20:41:24.689Z,11.36
2022-11-01T20:51:27.619Z,11.42
2022-11-01T21:01:29.104Z,11.53
2022-11-01T21:11:43.035Z,11.60
2022-11-01T21:21:48.326Z,11.54
2022-11-01T21:31:49.619Z,11.43
2022-11-01T21:41:56.605Z,11.50
2022-11-01T21:52:03.662Z,11.62
2022-11-01T22:02:06.950Z,11.57
2022-11-01T22:12:08.346Z,11.46
2022-11-01T22:22:09.662Z,11.54
2022-11-01T22:32:10.828Z,11.65
2022-11-01T22:42:14.022Z,11.64
2022-11-01T22:52:28.797Z,11.70
2022-11-01T23:02:40.667Z,11.78
2022-11-01T23:13:00.726Z,11.73
2022-11-01T23:23:02.319Z,11.65
2022-11-01T23:33:08.134Z,11.73
2022-11-01T23:43:21.992Z,11.81
2022-11-01T23:53:33.342Z,11.93
